sensor_id;sensor_type;location;lat;lon;timestamp;P1;durP1;ratioP1;P2;durP2;ratioP2
47455;SDS011;33202;48.512;-2.780;2024-01-15T00:00:04;37.45;;;21.60;;
47455;SDS011;33202;48.512;-2.780;2024-01-15T00:02:30;40.53;;;22.77;;
47455;SDS011;33202;48.512;-2.780;2024-01-15T00:04:56;35.45;;;21.00;;
47455;SDS011;33202;48.512;-2.780;2024-01-15T00:07:22;34.50;;;20.88;;
47455;SDS011;33202;48.512;-2.780;2024-01-15T00:09:48;34.83;;;20.13;;
47455;SDS011;33202;48.512;-2.780;2024-01-15T00:12:14;34.63;;;19.40;;
47455;SDS011;33202;48.512;-2.780;2024-01-15T00:14:40;31.38;;;18.17;;
47455;SDS011;33202;48.512;-2.780;2024-01-15T00:17:07;34.40;;;20.02;;
47455;SDS011;33202;48.512;-2.780;2024-01-15T00:19:33;31.40;;;17.30;;
47455;SDS011;33202;48.512;-2.780;2024-01-15T00:21:59;30.75;;;17.83;;
47455;SDS011;33202;48.512;-2.780;2024-01-15T00:24:25;32.38;;;18.40;;
47455;SDS011;33202;48.512;-2.780;2024-01-15T00:26:51;33.35;;;19.67;;
47455;SDS011;33202;48.512;-2.780;2024-01-15T00:29:18;34.50;;;18.98;;
47455;SDS011;33202;48.512;-2.780;2024-01-15T00:31:44;35.50;;;19.83;;
47455;SDS011;33202;48.512;-2.780;2024-01-15T00:34:10;32.78;;;18.80;;
47455;SDS011;33202;48.512;-2.780;2024-01-15T00:36:36;30.83;;;17.73;;
47455;SDS011;33202;48.512;-2.780;2024-01-15T00:39:02;30.70;;;18.08;;
47455;SDS011;33202;48.512;-2.780;2024-01-15T00:41:30;31.65;;;18.92;;
47455;SDS011;33202;48.512;-2.780;2024-01-15T00:43:56;32.20;;;18.15;;
47455;SDS011;33202;48.512;-2.780;2024-01-15T00:46:22;30.60;;;18.42;;
47455;SDS011;33202;48.512;-2.780;2024-01-15T00:48:48;33.50;;;19.13;;
47455;SDS011;33202;48.512;-2.780;2024-01-15T00:51:14;32.67;;;19.60;;
47455;SDS011;33202;48.512;-2.780;2024-01-15T00:53:40;33.67;;;18.13;;
47455;SDS011;33202;48.512;-2.780;2024-01-15T00:56:06;30.45;;;18.67;;
47455;SDS011;33202;48.512;-2.780;2024-01-15T00:58:32;32.95;;;19.73;;
47455;SDS011;33202;48.512;-2.780;2024-01-15T01:00:58;32.13;;;18.92;;
47455;SDS011;33202;48.512;-2.780;2024-01-15T01:03:24;32.83;;;18.80;;
47455;SDS011;33202;48.512;-2.780;2024-01-15T01:05:50;31.67;;;18.30;;
47455;SDS011;33202;48.512;-2.780;2024-01-15T01:08:16;29.33;;;17.70;;
47455;SDS011;33202;48.512;-2.780;2024-01-15T01:10:42;39.65;;;21.52;;
47455;SDS011;33202;48.512;-2.780;2024-01-15T01:13:08;43.28;;;22.75;;
47455;SDS011;33202;48.512;-2.780;2024-01-15T01:15:34;35.22;;;19.42;;
47455;SDS011;33202;48.512;-2.780;2024-01-15T01:18:00;40.38;;;21.67;;
47455;SDS011;33202;48.512;-2.780;2024-01-15T01:20:26;50.75;;;25.35;;
47455;SDS011;33202;48.512;-2.780;2024-01-15T01:22:52;43.30;;;22.48;;
47455;SDS011;33202;48.512;-2.780;2024-01-15T01:25:18;79.13;;;36.35;;
47455;SDS011;33202;48.512;-2.780;2024-01-15T01:27:44;159.02;;;62.75;;
47455;SDS011;33202;48.512;-2.780;2024-01-15T01:30:10;131.30;;;52.17;;
47455;SDS011;33202;48.512;-2.780;2024-01-15T01:32:37;97.85;;;43.90;;
47455;SDS011;33202;48.512;-2.780;2024-01-15T01:35:03;114.93;;;48.50;;
47455;SDS011;33202;48.512;-2.780;2024-01-15T01:37:29;93.22;;;43.92;;
47455;SDS011;33202;48.512;-2.780;2024-01-15T01:39:55;62.75;;;31.27;;
47455;SDS011;33202;48.512;-2.780;2024-01-15T01:42:21;51.22;;;25.65;;
47455;SDS011;33202;48.512;-2.780;2024-01-15T01:44:47;43.13;;;22.25;;
47455;SDS011;33202;48.512;-2.780;2024-01-15T01:47:13;35.10;;;20.10;;
47455;SDS011;33202;48.512;-2.780;2024-01-15T01:49:40;32.42;;;18.77;;
47455;SDS011;33202;48.512;-2.780;2024-01-15T01:52:06;29.38;;;17.42;;
47455;SDS011;33202;48.512;-2.780;2024-01-15T01:54:32;29.77;;;18.35;;
47455;SDS011;33202;48.512;-2.780;2024-01-15T01:56:58;28.88;;;17.80;;
47455;SDS011;33202;48.512;-2.780;2024-01-15T01:59:25;31.52;;;17.70;;
47455;SDS011;33202;48.512;-2.780;2024-01-15T02:01:54;28.70;;;16.80;;
47455;SDS011;33202;48.512;-2.780;2024-01-15T02:04:21;28.13;;;16.77;;
47455;SDS011;33202;48.512;-2.780;2024-01-15T02:06:48;26.10;;;16.23;;
47455;SDS011;33202;48.512;-2.780;2024-01-15T02:09:14;28.23;;;17.00;;
47455;SDS011;33202;48.512;-2.780;2024-01-15T02:11:40;26.60;;;16.77;;
47455;SDS011;33202;48.512;-2.780;2024-01-15T02:14:07;24.98;;;15.57;;
47455;SDS011;33202;48.512;-2.780;2024-01-15T02:16:34;23.77;;;15.52;;
47455;SDS011;33202;48.512;-2.780;2024-01-15T02:19:00;25.25;;;15.35;;
47455;SDS011;33202;48.512;-2.780;2024-01-15T02:21:26;25.25;;;14.75;;
47455;SDS011;33202;48.512;-2.780;2024-01-15T02:23:53;26.45;;;15.75;;
47455;SDS011;33202;48.512;-2.780;2024-01-15T02:26:20;23.50;;;15.00;;
47455;SDS011;33202;48.512;-2.780;2024-01-15T02:28:46;27.67;;;17.35;;
47455;SDS011;33202;48.512;-2.780;2024-01-15T02:31:12;24.00;;;15.13;;
47455;SDS011;33202;48.512;-2.780;2024-01-15T02:33:38;24.83;;;15.43;;
47455;SDS011;33202;48.512;-2.780;2024-01-15T02:36:04;24.63;;;14.85;;
47455;SDS011;33202;48.512;-2.780;2024-01-15T02:38:30;21.80;;;13.73;;
47455;SDS011;33202;48.512;-2.780;2024-01-15T02:40:56;23.15;;;14.48;;
47455;SDS011;33202;48.512;-2.780;2024-01-15T02:43:22;22.92;;;14.73;;
47455;SDS011;33202;48.512;-2.780;2024-01-15T02:45:48;22.65;;;14.48;;
47455;SDS011;33202;48.512;-2.780;2024-01-15T02:48:14;22.48;;;14.48;;
47455;SDS011;33202;48.512;-2.780;2024-01-15T02:50:40;21.60;;;13.63;;
47455;SDS011;33202;48.512;-2.780;2024-01-15T02:53:06;20.63;;;13.32;;
47455;SDS011;33202;48.512;-2.780;2024-01-15T02:55:32;20.00;;;12.88;;
47455;SDS011;33202;48.512;-2.780;2024-01-15T02:57:59;22.00;;;13.63;;
47455;SDS011;33202;48.512;-2.780;2024-01-15T03:00:25;20.90;;;13.17;;
47455;SDS011;33202;48.512;-2.780;2024-01-15T03:02:51;21.90;;;13.07;;
47455;SDS011;33202;48.512;-2.780;2024-01-15T03:05:17;19.42;;;12.48;;
47455;SDS011;33202;48.512;-2.780;2024-01-15T03:07:43;20.02;;;13.05;;
47455;SDS011;33202;48.512;-2.780;2024-01-15T03:10:09;20.60;;;13.02;;
47455;SDS011;33202;48.512;-2.780;2024-01-15T03:12:35;18.52;;;11.98;;
47455;SDS011;33202;48.512;-2.780;2024-01-15T03:15:01;19.33;;;12.35;;
47455;SDS011;33202;48.512;-2.780;2024-01-15T03:17:27;19.17;;;12.35;;
47455;SDS011;33202;48.512;-2.780;2024-01-15T03:19:53;20.08;;;12.43;;
47455;SDS011;33202;48.512;-2.780;2024-01-15T03:22:19;16.85;;;11.20;;
47455;SDS011;33202;48.512;-2.780;2024-01-15T03:24:45;18.95;;;11.73;;
47455;SDS011;33202;48.512;-2.780;2024-01-15T03:27:11;18.50;;;12.23;;
47455;SDS011;33202;48.512;-2.780;2024-01-15T03:29:37;18.17;;;12.00;;
47455;SDS011;33202;48.512;-2.780;2024-01-15T03:32:03;18.38;;;11.40;;
47455;SDS011;33202;48.512;-2.780;2024-01-15T03:34:29;18.25;;;11.50;;
47455;SDS011;33202;48.512;-2.780;2024-01-15T03:36:55;16.88;;;11.00;;
47455;SDS011;33202;48.512;-2.780;2024-01-15T03:39:21;16.40;;;10.77;;
47455;SDS011;33202;48.512;-2.780;2024-01-15T03:41:47;17.17;;;11.32;;
47455;SDS011;33202;48.512;-2.780;2024-01-15T03:44:13;18.60;;;11.60;;
47455;SDS011;33202;48.512;-2.780;2024-01-15T03:46:39;15.43;;;9.75;;
47455;SDS011;33202;48.512;-2.780;2024-01-15T03:49:05;14.85;;;9.10;;
47455;SDS011;33202;48.512;-2.780;2024-01-15T03:51:31;17.08;;;10.57;;
47455;SDS011;33202;48.512;-2.780;2024-01-15T03:53:57;16.42;;;10.60;;
47455;SDS011;33202;48.512;-2.780;2024-01-15T03:56:23;17.38;;;11.05;;
47455;SDS011;33202;48.512;-2.780;2024-01-15T03:58:49;17.33;;;11.10;;
47455;SDS011;33202;48.512;-2.780;2024-01-15T04:01:15;17.30;;;10.60;;
47455;SDS011;33202;48.512;-2.780;2024-01-15T04:03:41;16.10;;;10.18;;
47455;SDS011;33202;48.512;-2.780;2024-01-15T04:06:07;17.30;;;10.60;;
47455;SDS011;33202;48.512;-2.780;2024-01-15T04:08:33;16.67;;;10.52;;
47455;SDS011;33202;48.512;-2.780;2024-01-15T04:10:59;15.88;;;10.15;;
47455;SDS011;33202;48.512;-2.780;2024-01-15T04:13:26;15.63;;;10.55;;
47455;SDS011;33202;48.512;-2.780;2024-01-15T04:15:53;18.17;;;10.75;;
47455;SDS011;33202;48.512;-2.780;2024-01-15T04:18:18;16.08;;;10.48;;
47455;SDS011;33202;48.512;-2.780;2024-01-15T04:20:44;15.63;;;10.40;;
47455;SDS011;33202;48.512;-2.780;2024-01-15T04:23:10;14.38;;;9.30;;
47455;SDS011;33202;48.512;-2.780;2024-01-15T04:25:36;15.23;;;9.35;;
47455;SDS011;33202;48.512;-2.780;2024-01-15T04:28:04;13.85;;;9.70;;
47455;SDS011;33202;48.512;-2.780;2024-01-15T04:30:30;16.25;;;10.25;;
47455;SDS011;33202;48.512;-2.780;2024-01-15T04:32:56;16.80;;;11.02;;
47455;SDS011;33202;48.512;-2.780;2024-01-15T04:35:22;16.15;;;10.30;;
47455;SDS011;33202;48.512;-2.780;2024-01-15T04:37:48;16.77;;;10.43;;
47455;SDS011;33202;48.512;-2.780;2024-01-15T04:40:14;16.15;;;10.27;;
47455;SDS011;33202;48.512;-2.780;2024-01-15T04:42:40;15.95;;;9.77;;
47455;SDS011;33202;48.512;-2.780;2024-01-15T04:45:06;15.25;;;10.00;;
47455;SDS011;33202;48.512;-2.780;2024-01-15T04:47:32;16.05;;;10.18;;
47455;SDS011;33202;48.512;-2.780;2024-01-15T04:49:58;16.73;;;9.98;;
47455;SDS011;33202;48.512;-2.780;2024-01-15T04:52:24;14.50;;;9.65;;
47455;SDS011;33202;48.512;-2.780;2024-01-15T04:54:50;13.55;;;9.20;;
47455;SDS011;33202;48.512;-2.780;2024-01-15T04:57:16;18.95;;;10.27;;
47455;SDS011;33202;48.512;-2.780;2024-01-15T04:59:42;15.13;;;10.18;;
47455;SDS011;33202;48.512;-2.780;2024-01-15T05:02:08;16.60;;;10.50;;
47455;SDS011;33202;48.512;-2.780;2024-01-15T05:04:34;15.90;;;10.57;;
47455;SDS011;33202;48.512;-2.780;2024-01-15T05:07:00;15.93;;;10.07;;
47455;SDS011;33202;48.512;-2.780;2024-01-15T05:09:26;14.40;;;9.90;;
47455;SDS011;33202;48.512;-2.780;2024-01-15T05:11:52;15.98;;;10.27;;
47455;SDS011;33202;48.512;-2.780;2024-01-15T05:14:18;16.13;;;10.48;;
47455;SDS011;33202;48.512;-2.780;2024-01-15T05:16:47;15.75;;;10.02;;
47455;SDS011;33202;48.512;-2.780;2024-01-15T05:19:14;17.63;;;10.90;;
47455;SDS011;33202;48.512;-2.780;2024-01-15T05:21:40;17.23;;;11.20;;
47455;SDS011;33202;48.512;-2.780;2024-01-15T05:26:33;17.02;;;10.43;;
47455;SDS011;33202;48.512;-2.780;2024-01-15T05:28:59;19.08;;;11.50;;
47455;SDS011;33202;48.512;-2.780;2024-01-15T05:31:25;18.98;;;10.82;;
47455;SDS011;33202;48.512;-2.780;2024-01-15T05:33:51;19.10;;;11.20;;
47455;SDS011;33202;48.512;-2.780;2024-01-15T05:36:18;19.08;;;11.73;;
47455;SDS011;33202;48.512;-2.780;2024-01-15T05:38:44;20.02;;;10.50;;
47455;SDS011;33202;48.512;-2.780;2024-01-15T05:41:10;18.27;;;10.35;;
47455;SDS011;33202;48.512;-2.780;2024-01-15T05:43:36;20.60;;;10.80;;
47455;SDS011;33202;48.512;-2.780;2024-01-15T05:46:02;19.13;;;10.75;;
47455;SDS011;33202;48.512;-2.780;2024-01-15T05:48:28;16.73;;;10.07;;
47455;SDS011;33202;48.512;-2.780;2024-01-15T05:50:54;19.48;;;10.70;;
47455;SDS011;33202;48.512;-2.780;2024-01-15T05:53:20;17.05;;;9.25;;
47455;SDS011;33202;48.512;-2.780;2024-01-15T05:55:46;14.38;;;8.68;;
47455;SDS011;33202;48.512;-2.780;2024-01-15T05:58:12;16.75;;;8.77;;
47455;SDS011;33202;48.512;-2.780;2024-01-15T06:00:38;12.80;;;7.53;;
47455;SDS011;33202;48.512;-2.780;2024-01-15T06:03:04;11.88;;;6.70;;
47455;SDS011;33202;48.512;-2.780;2024-01-15T06:05:30;12.02;;;6.55;;
47455;SDS011;33202;48.512;-2.780;2024-01-15T06:07:56;9.15;;;5.28;;
47455;SDS011;33202;48.512;-2.780;2024-01-15T06:10:22;10.00;;;4.47;;
47455;SDS011;33202;48.512;-2.780;2024-01-15T06:12:48;10.23;;;4.32;;
47455;SDS011;33202;48.512;-2.780;2024-01-15T06:15:14;6.45;;;2.97;;
47455;SDS011;33202;48.512;-2.780;2024-01-15T06:17:40;5.43;;;2.53;;
47455;SDS011;33202;48.512;-2.780;2024-01-15T06:20:07;6.60;;;1.80;;
47455;SDS011;33202;48.512;-2.780;2024-01-15T06:22:34;3.45;;;1.42;;
47455;SDS011;33202;48.512;-2.780;2024-01-15T06:25:02;2.75;;;1.00;;
47455;SDS011;33202;48.512;-2.780;2024-01-15T06:27:28;3.43;;;0.63;;
47455;SDS011;33202;48.512;-2.780;2024-01-15T06:29:54;1.80;;;0.50;;
47455;SDS011;33202;48.512;-2.780;2024-01-15T06:32:22;2.10;;;0.60;;
47455;SDS011;33202;48.512;-2.780;2024-01-15T06:34:48;3.78;;;0.80;;
47455;SDS011;33202;48.512;-2.780;2024-01-15T06:37:14;2.75;;;0.80;;
47455;SDS011;33202;48.512;-2.780;2024-01-15T06:39:40;5.90;;;1.10;;
47455;SDS011;33202;48.512;-2.780;2024-01-15T06:42:06;3.33;;;1.02;;
47455;SDS011;33202;48.512;-2.780;2024-01-15T06:44:32;4.07;;;1.40;;
47455;SDS011;33202;48.512;-2.780;2024-01-15T06:46:58;4.10;;;1.00;;
47455;SDS011;33202;48.512;-2.780;2024-01-15T06:49:28;6.20;;;1.25;;
47455;SDS011;33202;48.512;-2.780;2024-01-15T06:51:54;6.57;;;0.90;;
47455;SDS011;33202;48.512;-2.780;2024-01-15T06:54:20;5.70;;;0.93;;
47455;SDS011;33202;48.512;-2.780;2024-01-15T06:56:47;6.00;;;1.30;;
47455;SDS011;33202;48.512;-2.780;2024-01-15T06:59:13;4.43;;;1.10;;
47455;SDS011;33202;48.512;-2.780;2024-01-15T07:01:39;3.50;;;1.00;;
47455;SDS011;33202;48.512;-2.780;2024-01-15T07:04:05;5.55;;;1.17;;
47455;SDS011;33202;48.512;-2.780;2024-01-15T07:06:31;6.43;;;0.82;;
47455;SDS011;33202;48.512;-2.780;2024-01-15T07:08:57;4.38;;;0.93;;
47455;SDS011;33202;48.512;-2.780;2024-01-15T07:11:23;2.58;;;0.70;;
47455;SDS011;33202;48.512;-2.780;2024-01-15T07:13:49;3.67;;;0.80;;
47455;SDS011;33202;48.512;-2.780;2024-01-15T07:16:15;2.00;;;0.70;;
47455;SDS011;33202;48.512;-2.780;2024-01-15T07:18:41;2.47;;;0.70;;
47455;SDS011;33202;48.512;-2.780;2024-01-15T07:21:07;3.15;;;0.70;;
47455;SDS011;33202;48.512;-2.780;2024-01-15T07:23:33;4.25;;;0.70;;
47455;SDS011;33202;48.512;-2.780;2024-01-15T07:25:59;3.92;;;0.98;;
47455;SDS011;33202;48.512;-2.780;2024-01-15T07:28:25;2.53;;;0.68;;
47455;SDS011;33202;48.512;-2.780;2024-01-15T07:30:51;1.80;;;0.60;;
47455;SDS011;33202;48.512;-2.780;2024-01-15T07:33:17;3.15;;;1.00;;
47455;SDS011;33202;48.512;-2.780;2024-01-15T07:35:43;3.08;;;0.73;;
47455;SDS011;33202;48.512;-2.780;2024-01-15T07:38:09;5.82;;;2.15;;
47455;SDS011;33202;48.512;-2.780;2024-01-15T07:40:36;3.45;;;0.85;;
47455;SDS011;33202;48.512;-2.780;2024-01-15T07:43:02;2.53;;;1.08;;
47455;SDS011;33202;48.512;-2.780;2024-01-15T07:45:29;2.80;;;0.80;;
47455;SDS011;33202;48.512;-2.780;2024-01-15T07:47:55;2.05;;;0.70;;
47455;SDS011;33202;48.512;-2.780;2024-01-15T07:50:21;3.50;;;0.73;;
47455;SDS011;33202;48.512;-2.780;2024-01-15T07:52:47;3.97;;;1.00;;
47455;SDS011;33202;48.512;-2.780;2024-01-15T07:55:13;4.95;;;1.10;;
47455;SDS011;33202;48.512;-2.780;2024-01-15T07:57:39;2.53;;;1.00;;
47455;SDS011;33202;48.512;-2.780;2024-01-15T08:00:05;4.57;;;1.00;;
47455;SDS011;33202;48.512;-2.780;2024-01-15T08:02:34;3.72;;;0.90;;
47455;SDS011;33202;48.512;-2.780;2024-01-15T08:05:00;3.92;;;0.90;;
47455;SDS011;33202;48.512;-2.780;2024-01-15T08:07:25;2.40;;;0.68;;
47455;SDS011;33202;48.512;-2.780;2024-01-15T08:09:52;4.73;;;0.93;;
47455;SDS011;33202;48.512;-2.780;2024-01-15T08:12:18;2.92;;;1.25;;
47455;SDS011;33202;48.512;-2.780;2024-01-15T08:14:44;5.35;;;1.23;;
47455;SDS011;33202;48.512;-2.780;2024-01-15T08:17:10;3.90;;;1.05;;
47455;SDS011;33202;48.512;-2.780;2024-01-15T08:19:36;3.38;;;0.63;;
47455;SDS011;33202;48.512;-2.780;2024-01-15T08:22:04;2.50;;;0.63;;
47455;SDS011;33202;48.512;-2.780;2024-01-15T08:24:30;3.45;;;1.30;;
47455;SDS011;33202;48.512;-2.780;2024-01-15T08:26:56;1.48;;;0.65;;
47455;SDS011;33202;48.512;-2.780;2024-01-15T08:29:22;2.70;;;0.52;;
47455;SDS011;33202;48.512;-2.780;2024-01-15T08:31:49;3.28;;;0.85;;
47455;SDS011;33202;48.512;-2.780;2024-01-15T08:34:15;2.30;;;0.50;;
47455;SDS011;33202;48.512;-2.780;2024-01-15T08:36:41;3.00;;;0.70;;
47455;SDS011;33202;48.512;-2.780;2024-01-15T08:39:07;5.47;;;0.90;;
47455;SDS011;33202;48.512;-2.780;2024-01-15T08:41:34;3.83;;;0.80;;
47455;SDS011;33202;48.512;-2.780;2024-01-15T08:44:01;1.92;;;0.57;;
47455;SDS011;33202;48.512;-2.780;2024-01-15T08:48:53;3.55;;;0.73;;
47455;SDS011;33202;48.512;-2.780;2024-01-15T08:51:19;3.15;;;0.98;;
47455;SDS011;33202;48.512;-2.780;2024-01-15T08:53:45;3.30;;;0.98;;
47455;SDS011;33202;48.512;-2.780;2024-01-15T08:56:11;2.63;;;0.80;;
47455;SDS011;33202;48.512;-2.780;2024-01-15T08:58:37;3.25;;;0.80;;
47455;SDS011;33202;48.512;-2.780;2024-01-15T09:01:03;3.33;;;0.90;;
47455;SDS011;33202;48.512;-2.780;2024-01-15T09:03:30;2.38;;;0.60;;
47455;SDS011;33202;48.512;-2.780;2024-01-15T09:05:57;3.90;;;1.07;;
47455;SDS011;33202;48.512;-2.780;2024-01-15T09:08:23;2.60;;;1.48;;
47455;SDS011;33202;48.512;-2.780;2024-01-15T09:10:49;6.90;;;2.00;;
47455;SDS011;33202;48.512;-2.780;2024-01-15T09:13:15;3.40;;;1.10;;
47455;SDS011;33202;48.512;-2.780;2024-01-15T09:15:41;4.15;;;0.80;;
47455;SDS011;33202;48.512;-2.780;2024-01-15T09:18:08;3.10;;;1.13;;
47455;SDS011;33202;48.512;-2.780;2024-01-15T09:20:34;2.13;;;0.70;;
47455;SDS011;33202;48.512;-2.780;2024-01-15T09:23:00;1.38;;;0.50;;
47455;SDS011;33202;48.512;-2.780;2024-01-15T09:25:26;1.88;;;0.80;;
47455;SDS011;33202;48.512;-2.780;2024-01-15T09:27:53;8.63;;;1.95;;
47455;SDS011;33202;48.512;-2.780;2024-01-15T09:30:19;10.95;;;4.00;;
47455;SDS011;33202;48.512;-2.780;2024-01-15T09:32:45;12.93;;;4.38;;
47455;SDS011;33202;48.512;-2.780;2024-01-15T09:35:11;9.13;;;2.03;;
47455;SDS011;33202;48.512;-2.780;2024-01-15T09:37:37;29.05;;;4.90;;
47455;SDS011;33202;48.512;-2.780;2024-01-15T09:40:05;14.32;;;3.53;;
47455;SDS011;33202;48.512;-2.780;2024-01-15T09:42:31;9.33;;;1.97;;
47455;SDS011;33202;48.512;-2.780;2024-01-15T09:44:57;3.47;;;1.50;;
47455;SDS011;33202;48.512;-2.780;2024-01-15T09:47:23;2.20;;;1.10;;
47455;SDS011;33202;48.512;-2.780;2024-01-15T09:49:50;2.65;;;1.08;;
47455;SDS011;33202;48.512;-2.780;2024-01-15T09:52:16;2.97;;;1.08;;
47455;SDS011;33202;48.512;-2.780;2024-01-15T09:54:45;1.73;;;0.70;;
47455;SDS011;33202;48.512;-2.780;2024-01-15T09:57:11;6.10;;;1.27;;
47455;SDS011;33202;48.512;-2.780;2024-01-15T09:59:37;2.83;;;1.00;;
47455;SDS011;33202;48.512;-2.780;2024-01-15T10:02:04;4.87;;;1.20;;
47455;SDS011;33202;48.512;-2.780;2024-01-15T10:04:31;3.22;;;1.00;;
47455;SDS011;33202;48.512;-2.780;2024-01-15T10:06:57;3.38;;;1.00;;
47455;SDS011;33202;48.512;-2.780;2024-01-15T10:09:23;4.88;;;1.30;;
47455;SDS011;33202;48.512;-2.780;2024-01-15T10:11:49;3.33;;;1.05;;
47455;SDS011;33202;48.512;-2.780;2024-01-15T10:14:15;3.75;;;1.05;;
47455;SDS011;33202;48.512;-2.780;2024-01-15T10:16:41;2.83;;;0.82;;
47455;SDS011;33202;48.512;-2.780;2024-01-15T10:19:08;1.60;;;0.90;;
47455;SDS011;33202;48.512;-2.780;2024-01-15T10:21:34;3.28;;;1.10;;
47455;SDS011;33202;48.512;-2.780;2024-01-15T10:24:01;3.65;;;0.90;;
47455;SDS011;33202;48.512;-2.780;2024-01-15T10:26:27;2.10;;;0.97;;
47455;SDS011;33202;48.512;-2.780;2024-01-15T10:28:55;2.95;;;1.00;;
47455;SDS011;33202;48.512;-2.780;2024-01-15T10:31:21;4.53;;;0.85;;
47455;SDS011;33202;48.512;-2.780;2024-01-15T10:33:50;1.77;;;0.70;;
47455;SDS011;33202;48.512;-2.780;2024-01-15T10:36:17;3.72;;;0.90;;
47455;SDS011;33202;48.512;-2.780;2024-01-15T10:38:43;4.80;;;1.10;;
47455;SDS011;33202;48.512;-2.780;2024-01-15T10:41:09;2.90;;;0.80;;
47455;SDS011;33202;48.512;-2.780;2024-01-15T10:43:35;1.73;;;0.90;;
47455;SDS011;33202;48.512;-2.780;2024-01-15T10:46:01;2.33;;;0.77;;
47455;SDS011;33202;48.512;-2.780;2024-01-15T10:48:28;2.53;;;0.82;;
47455;SDS011;33202;48.512;-2.780;2024-01-15T10:50:56;1.92;;;0.60;;
47455;SDS011;33202;48.512;-2.780;2024-01-15T10:53:23;3.25;;;1.00;;
47455;SDS011;33202;48.512;-2.780;2024-01-15T10:55:50;6.32;;;1.30;;
47455;SDS011;33202;48.512;-2.780;2024-01-15T10:58:20;3.03;;;1.30;;
47455;SDS011;33202;48.512;-2.780;2024-01-15T11:00:48;4.07;;;1.60;;
47455;SDS011;33202;48.512;-2.780;2024-01-15T11:03:14;2.40;;;0.85;;
47455;SDS011;33202;48.512;-2.780;2024-01-15T11:05:42;2.85;;;0.98;;
47455;SDS011;33202;48.512;-2.780;2024-01-15T11:08:08;3.28;;;1.05;;
47455;SDS011;33202;48.512;-2.780;2024-01-15T11:13:04;3.17;;;1.33;;
47455;SDS011;33202;48.512;-2.780;2024-01-15T11:15:30;3.30;;;1.60;;
47455;SDS011;33202;48.512;-2.780;2024-01-15T11:17:57;3.72;;;1.45;;
47455;SDS011;33202;48.512;-2.780;2024-01-15T11:20:24;3.33;;;1.20;;
47455;SDS011;33202;48.512;-2.780;2024-01-15T11:22:50;3.22;;;1.20;;
47455;SDS011;33202;48.512;-2.780;2024-01-15T11:25:19;2.78;;;1.10;;
47455;SDS011;33202;48.512;-2.780;2024-01-15T11:27:46;1.55;;;0.88;;
47455;SDS011;33202;48.512;-2.780;2024-01-15T11:30:12;5.70;;;1.27;;
47455;SDS011;33202;48.512;-2.780;2024-01-15T11:32:39;2.55;;;0.80;;
47455;SDS011;33202;48.512;-2.780;2024-01-15T11:35:09;1.90;;;0.85;;
47455;SDS011;33202;48.512;-2.780;2024-01-15T11:40:13;2.05;;;0.85;;
47455;SDS011;33202;48.512;-2.780;2024-01-15T11:42:43;3.05;;;0.90;;
47455;SDS011;33202;48.512;-2.780;2024-01-15T11:45:10;1.70;;;0.70;;
47455;SDS011;33202;48.512;-2.780;2024-01-15T11:50:21;1.98;;;0.70;;
47455;SDS011;33202;48.512;-2.780;2024-01-15T11:52:54;2.77;;;0.87;;
47455;SDS011;33202;48.512;-2.780;2024-01-15T11:55:22;3.17;;;1.00;;
47455;SDS011;33202;48.512;-2.780;2024-01-15T11:57:53;5.65;;;1.63;;
47455;SDS011;33202;48.512;-2.780;2024-01-15T12:00:19;5.50;;;1.20;;
47455;SDS011;33202;48.512;-2.780;2024-01-15T12:02:46;4.47;;;1.20;;
47455;SDS011;33202;48.512;-2.780;2024-01-15T12:05:14;2.65;;;1.40;;
47455;SDS011;33202;48.512;-2.780;2024-01-15T12:07:40;4.47;;;1.30;;
47455;SDS011;33202;48.512;-2.780;2024-01-15T12:10:15;7.18;;;1.67;;
47455;SDS011;33202;48.512;-2.780;2024-01-15T12:12:54;2.78;;;0.98;;
47455;SDS011;33202;48.512;-2.780;2024-01-15T12:15:23;5.80;;;1.40;;
47455;SDS011;33202;48.512;-2.780;2024-01-15T12:17:49;8.00;;;2.17;;
47455;SDS011;33202;48.512;-2.780;2024-01-15T12:20:15;13.35;;;2.00;;
47455;SDS011;33202;48.512;-2.780;2024-01-15T12:22:43;15.10;;;2.83;;
47455;SDS011;33202;48.512;-2.780;2024-01-15T12:25:09;8.70;;;2.10;;
47455;SDS011;33202;48.512;-2.780;2024-01-15T12:27:35;6.95;;;1.60;;
47455;SDS011;33202;48.512;-2.780;2024-01-15T12:30:01;6.85;;;1.35;;
47455;SDS011;33202;48.512;-2.780;2024-01-15T12:32:27;5.07;;;1.23;;
47455;SDS011;33202;48.512;-2.780;2024-01-15T12:34:54;3.80;;;1.50;;
47455;SDS011;33202;48.512;-2.780;2024-01-15T12:37:20;4.20;;;2.10;;
47455;SDS011;33202;48.512;-2.780;2024-01-15T12:39:47;5.28;;;1.73;;
47455;SDS011;33202;48.512;-2.780;2024-01-15T12:42:16;5.20;;;2.10;;
47455;SDS011;33202;48.512;-2.780;2024-01-15T12:44:43;9.35;;;4.07;;
47455;SDS011;33202;48.512;-2.780;2024-01-15T12:49:39;18.48;;;5.95;;
47455;SDS011;33202;48.512;-2.780;2024-01-15T12:52:08;22.85;;;5.25;;
47455;SDS011;33202;48.512;-2.780;2024-01-15T12:54:35;14.43;;;3.80;;
47455;SDS011;33202;48.512;-2.780;2024-01-15T12:57:01;9.38;;;3.22;;
47455;SDS011;33202;48.512;-2.780;2024-01-15T12:59:27;6.90;;;3.22;;
47455;SDS011;33202;48.512;-2.780;2024-01-15T13:01:53;11.23;;;3.40;;
47455;SDS011;33202;48.512;-2.780;2024-01-15T13:04:20;10.37;;;2.83;;
47455;SDS011;33202;48.512;-2.780;2024-01-15T13:06:46;7.68;;;2.58;;
47455;SDS011;33202;48.512;-2.780;2024-01-15T13:09:14;3.67;;;2.10;;
47455;SDS011;33202;48.512;-2.780;2024-01-15T13:11:40;4.32;;;1.85;;
47455;SDS011;33202;48.512;-2.780;2024-01-15T13:14:06;4.45;;;2.10;;
47455;SDS011;33202;48.512;-2.780;2024-01-15T13:16:32;4.57;;;1.55;;
47455;SDS011;33202;48.512;-2.780;2024-01-15T13:18:58;5.53;;;2.00;;
47455;SDS011;33202;48.512;-2.780;2024-01-15T13:21:24;8.90;;;4.05;;
47455;SDS011;33202;48.512;-2.780;2024-01-15T13:23:50;5.03;;;2.80;;
47455;SDS011;33202;48.512;-2.780;2024-01-15T13:26:16;4.20;;;1.90;;
47455;SDS011;33202;48.512;-2.780;2024-01-15T13:28:44;4.05;;;1.35;;
47455;SDS011;33202;48.512;-2.780;2024-01-15T13:31:10;5.55;;;1.92;;
47455;SDS011;33202;48.512;-2.780;2024-01-15T13:33:36;2.67;;;1.33;;
47455;SDS011;33202;48.512;-2.780;2024-01-15T13:36:02;3.22;;;0.80;;
47455;SDS011;33202;48.512;-2.780;2024-01-15T13:38:28;1.50;;;0.70;;
47455;SDS011;33202;48.512;-2.780;2024-01-15T13:41:00;2.72;;;0.93;;
47455;SDS011;33202;48.512;-2.780;2024-01-15T13:43:26;11.25;;;1.70;;
47455;SDS011;33202;48.512;-2.780;2024-01-15T13:45:52;5.43;;;1.13;;
47455;SDS011;33202;48.512;-2.780;2024-01-15T13:48:19;5.03;;;0.98;;
47455;SDS011;33202;48.512;-2.780;2024-01-15T13:50:45;3.67;;;1.15;;
47455;SDS011;33202;48.512;-2.780;2024-01-15T13:53:11;8.23;;;1.60;;
47455;SDS011;33202;48.512;-2.780;2024-01-15T13:55:37;15.32;;;3.08;;
47455;SDS011;33202;48.512;-2.780;2024-01-15T13:58:03;15.52;;;3.42;;
47455;SDS011;33202;48.512;-2.780;2024-01-15T14:00:31;21.40;;;4.00;;
47455;SDS011;33202;48.512;-2.780;2024-01-15T14:02:57;23.25;;;3.40;;
47455;SDS011;33202;48.512;-2.780;2024-01-15T14:05:23;11.43;;;2.30;;
47455;SDS011;33202;48.512;-2.780;2024-01-15T14:07:49;10.18;;;2.10;;
47455;SDS011;33202;48.512;-2.780;2024-01-15T14:10:15;21.45;;;3.50;;
47455;SDS011;33202;48.512;-2.780;2024-01-15T14:12:41;20.13;;;3.58;;
47455;SDS011;33202;48.512;-2.780;2024-01-15T14:15:07;24.30;;;3.42;;
47455;SDS011;33202;48.512;-2.780;2024-01-15T14:17:34;15.43;;;2.23;;
47455;SDS011;33202;48.512;-2.780;2024-01-15T14:20:00;11.57;;;3.22;;
47455;SDS011;33202;48.512;-2.780;2024-01-15T14:22:26;4.13;;;1.77;;
47455;SDS011;33202;48.512;-2.780;2024-01-15T14:24:52;5.50;;;1.45;;
47455;SDS011;33202;48.512;-2.780;2024-01-15T14:27:19;3.88;;;1.30;;
47455;SDS011;33202;48.512;-2.780;2024-01-15T14:29:44;4.97;;;1.70;;
47455;SDS011;33202;48.512;-2.780;2024-01-15T14:32:11;8.80;;;3.13;;